Map

Track Data

SID SEASON NUMBER BASIN SUBBASIN NAME ISO_TIME NATURE LAT LON WMO_WIND WMO_PRES WMO_AGENCY TRACK_TYPE DIST2LAND LANDFALL IFLAG USA_AGENCY USA_ATCF_ID USA_LAT USA_LON USA_RECORD USA_STATUS USA_WIND USA_PRES USA_SSHS USA_R34_NE USA_R34_SE USA_R34_SW USA_R34_NW USA_R50_NE USA_R50_SE USA_R50_SW USA_R50_NW USA_R64_NE USA_R64_SE USA_R64_SW USA_R64_NW USA_POCI USA_ROCI USA_RMW USA_EYE TOKYO_LAT TOKYO_LON TOKYO_GRADE TOKYO_WIND TOKYO_PRES TOKYO_R50_DIR TOKYO_R50_LONG TOKYO_R50_SHORT TOKYO_R30_DIR TOKYO_R30_LONG TOKYO_R30_SHORT TOKYO_LAND CMA_LAT CMA_LON CMA_CAT CMA_WIND CMA_PRES HKO_LAT HKO_LON HKO_CAT HKO_WIND HKO_PRES NEWDELHI_LAT NEWDELHI_LON NEWDELHI_GRADE NEWDELHI_WIND NEWDELHI_PRES NEWDELHI_CI NEWDELHI_DP NEWDELHI_POCI REUNION_LAT REUNION_LON REUNION_TYPE REUNION_WIND REUNION_PRES REUNION_TNUM REUNION_CI REUNION_RMW REUNION_R34_NE REUNION_R34_SE REUNION_R34_SW REUNION_R34_NW REUNION_R50_NE REUNION_R50_SE REUNION_R50_SW REUNION_R50_NW REUNION_R64_NE REUNION_R64_SE REUNION_R64_SW REUNION_R64_NW BOM_LAT BOM_LON BOM_TYPE BOM_WIND BOM_PRES BOM_TNUM BOM_CI BOM_RMW BOM_R34_NE BOM_R34_SE BOM_R34_SW BOM_R34_NW BOM_R50_NE BOM_R50_SE BOM_R50_SW BOM_R50_NW BOM_R64_NE BOM_R64_SE BOM_R64_SW BOM_R64_NW BOM_ROCI BOM_POCI BOM_EYE BOM_POS_METHOD BOM_PRES_METHOD NADI_LAT NADI_LON NADI_CAT NADI_WIND NADI_PRES WELLINGTON_LAT WELLINGTON_LON WELLINGTON_WIND WELLINGTON_PRES DS824_LAT DS824_LON DS824_STAGE DS824_WIND DS824_PRES TD9636_LAT TD9636_LON TD9636_STAGE TD9636_WIND TD9636_PRES TD9635_LAT TD9635_LON TD9635_WIND TD9635_PRES TD9635_ROCI NEUMANN_LAT NEUMANN_LON NEUMANN_CLASS NEUMANN_WIND NEUMANN_PRES MLC_LAT MLC_LON MLC_CLASS MLC_WIND MLC_PRES USA_GUST BOM_GUST BOM_GUST_PER REUNION_GUST REUNION_GUST_PER USA_SEAHGT USA_SEARAD_NE USA_SEARAD_SE USA_SEARAD_SW USA_SEARAD_NW STORM_SPEED STORM_DIR
1996233N12340 1996 70 NA NA EDOUARD 1996-08-19 18:00:00 TS 12.4000 -19.9000 25 1007 hurdat_atl main 336 336 O_____________ hurdat_atl AL051996 12.4000 -19.9000 TD 25 1007 -1 8 270
1996233N12340 1996 70 NA NA EDOUARD 1996-08-19 21:00:00 TS 12.4026 -20.2925 main 380 380 P_____________ AL051996 12.4026 -20.2925 TD 25 1007 -1 8 270
1996233N12340 1996 70 NA NA EDOUARD 1996-08-20 00:00:00 TS 12.4000 -20.7000 25 1007 hurdat_atl main 423 423 O_____________ hurdat_atl AL051996 12.4000 -20.7000 TD 25 1007 -1 8 269
1996233N12340 1996 70 NA NA EDOUARD 1996-08-20 03:00:00 TS 12.3924 -21.1350 main 466 466 P_____________ AL051996 12.3924 -21.1350 TD 25 1007 -1 9 270
1996233N12340 1996 70 NA NA EDOUARD 1996-08-20 06:00:00 TS 12.4000 -21.6000 25 1007 hurdat_atl main 512 512 O_____________ hurdat_atl AL051996 12.4000 -21.6000 TD 25 1007 -1 9 273
1996233N12340 1996 70 NA NA EDOUARD 1996-08-20 09:00:00 TS 12.4424 -22.0775 main 560 560 P_____________ AL051996 12.4424 -22.0775 TD 25 1007 -1 10 276
1996233N12340 1996 70 NA NA EDOUARD 1996-08-20 12:00:00 TS 12.5000 -22.6000 25 1007 hurdat_atl main 603 603 O_____________ hurdat_atl AL051996 12.5000 -22.6000 TD 25 1007 -1 11 276
1996233N12340 1996 70 NA NA EDOUARD 1996-08-20 15:00:00 TS 12.5573 -23.1625 main 659 659 P_____________ AL051996 12.5573 -23.1625 TD 25 1007 -1 12 275
1996233N12340 1996 70 NA NA EDOUARD 1996-08-20 18:00:00 TS 12.6000 -23.8000 25 1007 hurdat_atl main 720 720 O_____________ hurdat_atl AL051996 12.6000 -23.8000 TD 25 1007 -1 13 272
1996233N12340 1996 70 NA NA EDOUARD 1996-08-20 21:00:00 TS 12.5925 -24.5352 main 792 792 P_____________ AL051996 12.5925 -24.5352 TD 25 1007 -1 15 270
1996233N12340 1996 70 NA NA EDOUARD 1996-08-21 00:00:00 TS 12.6000 -25.3000 25 1007 hurdat_atl main 875 875 O_____________ hurdat_atl AL051996 12.6000 -25.3000 TD 25 1007 -1 15 274
1996233N12340 1996 70 NA NA EDOUARD 1996-08-21 03:00:00 TS 12.6924 -26.0223 main 945 945 P_____________ AL051996 12.6924 -26.0223 TD 25 1007 -1 14 278
1996233N12340 1996 70 NA NA EDOUARD 1996-08-21 06:00:00 TS 12.8000 -26.7000 25 1007 hurdat_atl main 1016 1016 O_____________ hurdat_atl AL051996 12.8000 -26.7000 TD 25 1007 -1 13 277
1996233N12340 1996 70 NA NA EDOUARD 1996-08-21 09:00:00 TS 12.8572 -27.3076 main 1077 1077 P_____________ AL051996 12.8572 -27.3076 TD 25 1007 -1 12 275
1996233N12340 1996 70 NA NA EDOUARD 1996-08-21 12:00:00 TS 12.9000 -27.9000 25 1007 hurdat_atl main 1141 1141 O_____________ hurdat_atl AL051996 12.9000 -27.9000 TD 25 1007 -1 12 274
1996233N12340 1996 70 NA NA EDOUARD 1996-08-21 15:00:00 TS 12.9500 -28.5575 main 1213 1213 P_____________ AL051996 12.9500 -28.5575 TD 25 1006 -1 13 275
1996233N12340 1996 70 NA NA EDOUARD 1996-08-21 18:00:00 TS 13.0000 -29.2000 25 1006 hurdat_atl main 1277 1277 O_____________ hurdat_atl AL051996 13.0000 -29.2000 TD 25 1006 -1 12 275
1996233N12340 1996 70 NA NA EDOUARD 1996-08-21 21:00:00 TS 13.0497 -29.7500 main 1342 1340 P_____________ AL051996 13.0497 -29.7500 TD 27 1006 -1 11 275
1996233N12340 1996 70 NA NA EDOUARD 1996-08-22 00:00:00 TS 13.1000 -30.3000 30 1006 hurdat_atl main 1393 1393 O_____________ hurdat_atl AL051996 13.1000 -30.3000 TD 30 1006 -1 12 275
1996233N12340 1996 70 NA NA EDOUARD 1996-08-22 03:00:00 TS 13.1424 -30.9351 main 1457 1457 P_____________ AL051996 13.1424 -30.9351 TD 32 1005 -1 13 275
1996233N12340 1996 70 NA NA EDOUARD 1996-08-22 06:00:00 TS 13.2000 -31.6000 35 1005 hurdat_atl main 1531 1531 O_____________ hurdat_atl AL051996 13.2000 -31.6000 TS 35 1005 0 13 277
1996233N12340 1996 70 NA NA EDOUARD 1996-08-22 09:00:00 TS 13.2997 -32.2350 main 1594 1594 P_____________ AL051996 13.2997 -32.2350 TS 37 1004 0 13 279
1996233N12340 1996 70 NA NA EDOUARD 1996-08-22 12:00:00 TS 13.4000 -32.9000 40 1003 hurdat_atl main 1668 1668 O_____________ hurdat_atl AL051996 13.4000 -32.9000 TS 40 1003 0 14 276
1996233N12340 1996 70 NA NA EDOUARD 1996-08-22 15:00:00 TS 13.4500 -33.6427 main 1743 1743 P_____________ AL051996 13.4500 -33.6427 TS 40 1002 0 15 274
1996233N12340 1996 70 NA NA EDOUARD 1996-08-22 18:00:00 TS 13.5000 -34.4000 40 1002 hurdat_atl main 1828 1828 O_____________ hurdat_atl AL051996 13.5000 -34.4000 TS 40 1002 0 14 276
1996233N12340 1996 70 NA NA EDOUARD 1996-08-22 21:00:00 TS 13.5999 -35.1224 main 1902 1902 P_____________ AL051996 13.5999 -35.1224 TS 42 1001 0 14 278
1996233N12340 1996 70 NA NA EDOUARD 1996-08-23 00:00:00 TS 13.7000 -35.8000 45 1000 hurdat_atl main 1911 1899 O_____________ hurdat_atl AL051996 13.7000 -35.8000 TS 45 1000 0 13 277
1996233N12340 1996 70 NA NA EDOUARD 1996-08-23 03:00:00 TS 13.7572 -36.4076 main 1908 1896 P_____________ AL051996 13.7572 -36.4076 TS 47 998 0 12 275
1996233N12340 1996 70 NA NA EDOUARD 1996-08-23 06:00:00 TS 13.8000 -37.0000 50 996 hurdat_atl main 1896 1842 O_____________ hurdat_atl AL051996 13.8000 -37.0000 TS 50 996 0 12 274
1996233N12340 1996 70 NA NA EDOUARD 1996-08-23 09:00:00 TS 13.8498 -37.6275 main 1842 1786 P_____________ AL051996 13.8498 -37.6275 TS 57 992 0 13 275
1996233N12340 1996 70 NA NA EDOUARD 1996-08-23 12:00:00 TS 13.9000 -38.3000 65 988 hurdat_atl main 1786 1725 O_____________ hurdat_atl AL051996 13.9000 -38.3000 HU 65 988 1 14 274
1996233N12340 1996 70 NA NA EDOUARD 1996-08-23 15:00:00 TS 13.9500 -39.0500 main 1724 1665 P_____________ AL051996 13.9500 -39.0500 HU 65 987 1 15 274
1996233N12340 1996 70 NA NA EDOUARD 1996-08-23 18:00:00 TS 14.0000 -39.8000 65 986 hurdat_atl main 1665 1615 O_____________ hurdat_atl AL051996 14.0000 -39.8000 HU 65 986 1 14 274
1996233N12340 1996 70 NA NA EDOUARD 1996-08-23 21:00:00 TS 14.0572 -40.4650 main 1615 1567 P_____________ AL051996 14.0572 -40.4650 HU 67 984 1 13 275
1996233N12340 1996 70 NA NA EDOUARD 1996-08-24 00:00:00 TS 14.1000 -41.1000 70 983 hurdat_atl main 1567 1521 O_____________ hurdat_atl AL051996 14.1000 -41.1000 HU 70 983 1 13 271
1996233N12340 1996 70 NA NA EDOUARD 1996-08-24 03:00:00 TS 14.0849 -41.7577 main 1513 1469 P_____________ AL051996 14.0849 -41.7577 HU 72 981 1 13 270
1996233N12340 1996 70 NA NA EDOUARD 1996-08-24 06:00:00 TS 14.1000 -42.4000 75 980 hurdat_atl main 1469 1434 O_____________ hurdat_atl AL051996 14.1000 -42.4000 HU 75 980 1 12 277
1996233N12340 1996 70 NA NA EDOUARD 1996-08-24 09:00:00 TS 14.2348 -43.0148 main 1434 1411 P_____________ AL051996 14.2348 -43.0148 HU 82 975 1 12 284
1996233N12340 1996 70 NA NA EDOUARD 1996-08-24 12:00:00 TS 14.4000 -43.6000 90 970 hurdat_atl main 1411 1388 O_____________ hurdat_atl AL051996 14.4000 -43.6000 HU 90 970 2 11 283
1996233N12340 1996 70 NA NA EDOUARD 1996-08-24 15:00:00 TS 14.4923 -44.1577 main 1382 1361 P_____________ AL051996 14.4923 -44.1577 HU 95 965 2 11 281
1996233N12340 1996 70 NA NA EDOUARD 1996-08-24 18:00:00 TS 14.6000 -44.7000 100 960 hurdat_atl main 1361 1343 O_____________ hurdat_atl AL051996 14.6000 -44.7000 HU 100 960 3 11 286
1996233N12340 1996 70 NA NA EDOUARD 1996-08-24 21:00:00 TS 14.7848 -45.2425 main 1346 1326 P_____________ AL051996 14.7848 -45.2425 HU 110 951 3 11 291
1996233N12340 1996 70 NA NA EDOUARD 1996-08-25 00:00:00 TS 15.0000 -45.8000 120 942 hurdat_atl main 1326 1305 O_____________ hurdat_atl AL051996 15.0000 -45.8000 HU 120 942 4 12 290
1996233N12340 1996 70 NA NA EDOUARD 1996-08-25 03:00:00 TS 15.1923 -46.3852 main 1309 1296 P_____________ AL051996 15.1923 -46.3852 HU 122 937 4 12 289
1996233N12340 1996 70 NA NA EDOUARD 1996-08-25 06:00:00 TS 15.4000 -47.0000 125 933 hurdat_atl main 1296 1285 O_____________ hurdat_atl AL051996 15.4000 -47.0000 HU 125 933 4 13 290
1996233N12340 1996 70 NA NA EDOUARD 1996-08-25 09:00:00 TS 15.6349 -47.6426 main 1285 1278 P_____________ AL051996 15.6349 -47.6426 HU 125 933 4 14 292
1996233N12340 1996 70 NA NA EDOUARD 1996-08-25 12:00:00 TS 15.9000 -48.3000 125 934 hurdat_atl main 1284 1280 O_____________ hurdat_atl AL051996 15.9000 -48.3000 HU 125 934 4 14 294
1996233N12340 1996 70 NA NA EDOUARD 1996-08-25 15:00:00 TS 16.1998 -48.9501 main 1285 1282 P_____________ AL051996 16.1998 -48.9501 HU 125 934 4 14 296
1996233N12340 1996 70 NA NA EDOUARD 1996-08-25 18:00:00 TS 16.5000 -49.6000 125 935 hurdat_atl main 1288 1282 O_____________ hurdat_atl AL051996 16.5000 -49.6000 HU 125 935 4 14 294
1996233N12340 1996 70 NA NA EDOUARD 1996-08-25 21:00:00 TS 16.7574 -50.2652 main 1292 1285 P_____________ AL051996 16.7574 -50.2652 HU 125 935 4 13 292
1996233N12340 1996 70 NA NA EDOUARD 1996-08-26 00:00:00 TS 17.0000 -50.9000 125 936 hurdat_atl main 1293 1265 O_____________ hurdat_atl AL051996 17.0000 -50.9000 HU 125 936 4 12 294
1996233N12340 1996 70 NA NA EDOUARD 1996-08-26 03:00:00 TS 17.2572 -51.4577 main 1263 1233 P_____________ AL051996 17.2572 -51.4577 HU 125 936 4 12 295
1996233N12340 1996 70 NA NA EDOUARD 1996-08-26 06:00:00 TS 17.5000 -52.0000 125 936 hurdat_atl main 1233 1197 O_____________ hurdat_atl AL051996 17.5000 -52.0000 HU 125 936 4 12 292
1996233N12340 1996 70 NA NA EDOUARD 1996-08-26 09:00:00 TS 17.6998 -52.5853 main 1197 1164 P_____________ AL051996 17.6998 -52.5853 HU 125 936 4 12 289
1996233N12340 1996 70 NA NA EDOUARD 1996-08-26 12:00:00 TS 17.9000 -53.2000 125 937 hurdat_atl main 1164 1134 O_____________ hurdat_atl AL051996 17.9000 -53.2000 HU 125 937 4 13 290
1996233N12340 1996 70 NA NA EDOUARD 1996-08-26 15:00:00 TS 18.1425 -53.8575 main 1127 1108 P_____________ AL051996 18.1425 -53.8575 HU 125 937 4 13 292
1996233N12340 1996 70 NA NA EDOUARD 1996-08-26 18:00:00 TS 18.4000 -54.5000 125 938 hurdat_atl main 1109 1094 O_____________ hurdat_atl AL051996 18.4000 -54.5000 HU 125 938 4 12 294
1996233N12340 1996 70 NA NA EDOUARD 1996-08-26 21:00:00 TS 18.6421 -55.0504 main 1088 1054 P_____________ AL051996 18.6421 -55.0504 HU 125 940 4 12 296
1996233N12340 1996 70 NA NA EDOUARD 1996-08-27 00:00:00 TS 18.9000 -55.6000 125 942 hurdat_atl main 1054 993 O_____________ hurdat_atl AL051996 18.9000 -55.6000 HU 125 942 4 13 296
1996233N12340 1996 70 NA NA EDOUARD 1996-08-27 03:00:00 TS 19.2000 -56.2425 main 993 923 P_____________ AL051996 19.2000 -56.2425 HU 122 945 4 14 296
1996233N12340 1996 70 NA NA EDOUARD 1996-08-27 06:00:00 TS 19.5000 -56.9000 120 948 hurdat_atl main 923 865 O_____________ hurdat_atl AL051996 19.5000 -56.9000 HU 120 948 4 13 295
1996233N12340 1996 70 NA NA EDOUARD 1996-08-27 09:00:00 TS 19.7647 -57.5077 main 865 807 P_____________ AL051996 19.7647 -57.5077 HU 117 950 4 12 294
1996233N12340 1996 70 NA NA EDOUARD 1996-08-27 12:00:00 TS 20.0000 -58.1000 115 952 hurdat_atl main 807 751 O_____________ hurdat_atl AL051996 20.0000 -58.1000 HU 115 952 4 12 291
1996233N12340 1996 70 NA NA EDOUARD 1996-08-27 15:00:00 TS 20.1999 -58.7078 main 751 697 P_____________ AL051996 20.1999 -58.7078 HU 115 951 4 12 290
1996233N12340 1996 70 NA NA EDOUARD 1996-08-27 18:00:00 TS 20.4000 -59.3000 115 951 hurdat_atl main 697 655 O_____________ hurdat_atl AL051996 20.4000 -59.3000 HU 115 951 4 12 293
1996233N12340 1996 70 NA NA EDOUARD 1996-08-27 21:00:00 TS 20.6496 -59.8426 main 655 612 P_____________ AL051996 20.6496 -59.8426 HU 120 947 4 11 296
1996233N12340 1996 70 NA NA EDOUARD 1996-08-28 00:00:00 TS 20.9000 -60.4000 125 944 hurdat_atl main 612 568 O_____________ hurdat_atl AL051996 20.9000 -60.4000 HU 125 944 4 12 292
1996233N12340 1996 70 NA NA EDOUARD 1996-08-28 03:00:00 TS 21.0922 -61.0205 main 568 521 P_____________ AL051996 21.0922 -61.0205 HU 120 948 4 13 288
1996233N12340 1996 70 NA NA EDOUARD 1996-08-28 06:00:00 TS 21.3000 -61.7000 115 952 hurdat_atl main 521 489 O_____________ hurdat_atl AL051996 21.3000 -61.7000 HU 115 952 4 14 291
1996233N12340 1996 70 NA NA EDOUARD 1996-08-28 09:00:00 TS 21.6000 -62.4422 main 489 464 P_____________ AL051996 21.6000 -62.4422 HU 112 956 3 15 293
1996233N12340 1996 70 NA NA EDOUARD 1996-08-28 12:00:00 TS 21.9000 -63.2000 110 960 hurdat_atl main 464 448 O_____________ hurdat_atl AL051996 21.9000 -63.2000 HU 110 960 3 15 290
1996233N12340 1996 70 NA NA EDOUARD 1996-08-28 15:00:00 TS 22.0997 -63.9156 main 450 440 P_____________ AL051996 22.0997 -63.9156 HU 110 958 3 14 287
1996233N12340 1996 70 NA NA EDOUARD 1996-08-28 18:00:00 TS 22.3000 -64.6000 110 956 hurdat_atl main 448 446 O_____________ hurdat_atl AL051996 22.3000 -64.6000 HU 110 956 3 13 292
1996233N12340 1996 70 NA NA EDOUARD 1996-08-28 21:00:00 TS 22.5922 -65.2650 main 470 470 P_____________ AL051996 22.5922 -65.2650 HU 110 956 3 13 297
1996233N12340 1996 70 NA NA EDOUARD 1996-08-29 00:00:00 TS 22.9000 -65.9000 110 957 hurdat_atl main 503 503 O_____________ hurdat_atl AL051996 22.9000 -65.9000 HU 110 957 3 13 296
1996233N12340 1996 70 NA NA EDOUARD 1996-08-29 03:00:00 TS 23.1498 -66.5229 main 514 506 P_____________ AL051996 23.1498 -66.5229 HU 110 959 3 12 294
1996233N12340 1996 70 NA NA EDOUARD 1996-08-29 06:00:00 TS 23.4000 -67.1000 110 961 hurdat_atl main 511 507 O_____________ hurdat_atl AL051996 23.4000 -67.1000 HU 110 961 3 11 298
1996233N12340 1996 70 NA NA EDOUARD 1996-08-29 09:00:00 TS 23.6848 -67.6228 main 521 516 P_____________ AL051996 23.6848 -67.6228 HU 112 955 3 11 303
1996233N12340 1996 70 NA NA EDOUARD 1996-08-29 12:00:00 TS 24.0000 -68.1000 115 950 hurdat_atl main 529 525 O_____________ hurdat_atl AL051996 24.0000 -68.1000 HU 115 950 4 11 306
1996233N12340 1996 70 NA NA EDOUARD 1996-08-29 15:00:00 TS 24.3350 -68.5875 main 543 543 P_____________ AL051996 24.3350 -68.5875 HU 117 949 4 11 310
1996233N12340 1996 70 NA NA EDOUARD 1996-08-29 18:00:00 TS 24.7000 -69.0000 120 948 hurdat_atl main 566 566 O_____________ hurdat_atl AL051996 24.7000 -69.0000 HU 120 948 4 10 320
1996233N12340 1996 70 NA NA EDOUARD 1996-08-29 21:00:00 TS 25.0848 -69.2878 main 576 576 P_____________ AL051996 25.0848 -69.2878 HU 120 944 4 9 330
1996233N12340 1996 70 NA NA EDOUARD 1996-08-30 00:00:00 TS 25.5000 -69.5000 120 941 hurdat_atl main 598 598 O_____________ hurdat_atl AL051996 25.5000 -69.5000 HU 120 941 4 9 336
1996233N12340 1996 70 NA NA EDOUARD 1996-08-30 03:00:00 TS 25.9350 -69.7151 main 623 623 P_____________ AL051996 25.9350 -69.7151 HU 120 940 4 10 338
1996233N12340 1996 70 NA NA EDOUARD 1996-08-30 06:00:00 TS 26.4000 -69.9000 120 939 hurdat_atl main 661 661 O_____________ hurdat_atl AL051996 26.4000 -69.9000 HU 120 939 4 10 342
1996233N12340 1996 70 NA NA EDOUARD 1996-08-30 09:00:00 TS 26.8850 -70.0577 main 701 701 P_____________ AL051996 26.8850 -70.0577 HU 120 938 4 10 345
1996233N12340 1996 70 NA NA EDOUARD 1996-08-30 12:00:00 TS 27.4000 -70.2000 120 938 hurdat_atl main 748 748 O_____________ hurdat_atl AL051996 27.4000 -70.2000 HU 120 938 4 11 345
1996233N12340 1996 70 NA NA EDOUARD 1996-08-30 15:00:00 TS 27.9500 -70.3723 main 803 803 P_____________ AL051996 27.9500 -70.3723 HU 120 936 4 11 346
1996233N12340 1996 70 NA NA EDOUARD 1996-08-30 18:00:00 TS 28.5000 -70.5000 120 934 hurdat_atl main 834 834 O_____________ hurdat_atl AL051996 28.5000 -70.5000 HU 120 934 4 11 353
1996233N12340 1996 70 NA NA EDOUARD 1996-08-30 21:00:00 TS 29.0150 -70.5154 main 850 808 P_____________ AL051996 29.0150 -70.5154 HU 115 939 4 10 1
1996233N12340 1996 70 NA NA EDOUARD 1996-08-31 00:00:00 TS 29.5000 -70.5000 110 944 hurdat_atl main 808 769 O_____________ hurdat_atl AL051996 29.5000 -70.5000 HU 110 944 3 9 356
1996233N12340 1996 70 NA NA EDOUARD 1996-08-31 03:00:00 TS 29.9350 -70.5720 main 769 730 P_____________ AL051996 29.9350 -70.5720 HU 107 947 3 9 355
1996233N12340 1996 70 NA NA EDOUARD 1996-08-31 06:00:00 TS 30.4000 -70.6000 105 950 hurdat_atl main 730 693 O_____________ hurdat_atl AL051996 30.4000 -70.6000 HU 105 950 3 11 5
1996233N12340 1996 70 NA NA EDOUARD 1996-08-31 09:00:00 TS 30.9851 -70.4730 main 693 667 P_____________ AL051996 30.9851 -70.4730 HU 105 951 3 12 12
1996233N12340 1996 70 NA NA EDOUARD 1996-08-31 12:00:00 TS 31.6000 -70.3000 105 952 hurdat_atl main 667 638 O_____________ hurdat_atl AL051996 31.6000 -70.3000 HU 105 952 3 12 12
1996233N12340 1996 70 NA NA EDOUARD 1996-08-31 15:00:00 TS 32.1425 -70.1775 main 638 603 P_____________ AL051996 32.1425 -70.1775 HU 102 952 3 11 9
1996233N12340 1996 70 NA NA EDOUARD 1996-08-31 18:00:00 TS 32.7000 -70.1000 100 953 hurdat_atl main 603 566 O_____________ hurdat_atl AL051996 32.7000 -70.1000 HU 100 953 3 12 4
1996233N12340 1996 70 NA NA EDOUARD 1996-08-31 21:00:00 TS 33.3425 -70.0847 main 566 530 P_____________ AL051996 33.3425 -70.0847 HU 100 956 3 13 1
1996233N12340 1996 70 NA NA EDOUARD 1996-09-01 00:00:00 TS 34.0000 -70.1000 100 959 hurdat_atl main 530 507 O_____________ hurdat_atl AL051996 34.0000 -70.1000 HU 100 959 3 13 0
1996233N12340 1996 70 NA NA EDOUARD 1996-09-01 03:00:00 TS 34.6000 -70.0927 main 507 492 P_____________ AL051996 34.6000 -70.0927 HU 100 958 3 12 1
1996233N12340 1996 70 NA NA EDOUARD 1996-09-01 06:00:00 TS 35.2000 -70.1000 100 958 hurdat_atl main 492 476 O_____________ hurdat_atl AL051996 35.2000 -70.1000 HU 100 958 3 13 358
1996233N12340 1996 70 NA NA EDOUARD 1996-09-01 09:00:00 TS 35.8650 -70.1644 main 476 475 P_____________ AL051996 35.8650 -70.1644 HU 97 958 3 13 356
1996233N12340 1996 70 NA NA EDOUARD 1996-09-01 12:00:00 TS 36.5000 -70.2000 95 958 hurdat_atl main 475 452 O_____________ hurdat_atl AL051996 36.5000 -70.2000 HU 95 958 2 11 1
1996233N12340 1996 70 NA NA EDOUARD 1996-09-01 15:00:00 TS 37.0074 -70.1447 main 459 429 P_____________ AL051996 37.0074 -70.1447 HU 90 959 2 10 9
1996233N12340 1996 70 NA NA EDOUARD 1996-09-01 18:00:00 TS 37.5000 -70.0000 85 960 hurdat_atl main 429 384 O_____________ hurdat_atl AL051996 37.5000 -70.0000 HU 85 960 2 11 16
1996233N12340 1996 70 NA NA EDOUARD 1996-09-01 21:00:00 TS 38.0927 -69.7435 main 387 327 P_____________ AL051996 38.0927 -69.7435 HU 82 962 1 13 18
1996233N12340 1996 70 NA NA EDOUARD 1996-09-02 00:00:00 TS 38.7000 -69.5000 80 964 hurdat_atl main 327 264 O_____________ hurdat_atl AL051996 38.7000 -69.5000 HU 80 964 1 12 9
1996233N12340 1996 70 NA NA EDOUARD 1996-09-02 03:00:00 TS 39.2870 -69.4929 main 264 217 P_____________ AL051996 39.2870 -69.4929 HU 75 962 1 11 4
1996233N12340 1996 70 NA NA EDOUARD 1996-09-02 06:00:00 TS 39.8000 -69.4000 70 961 hurdat_atl main 217 186 O_____________ hurdat_atl AL051996 39.8000 -69.4000 HU 70 961 1 10 27
1996233N12340 1996 70 NA NA EDOUARD 1996-09-02 09:00:00 TS 40.1731 -68.9178 main 190 185 P_____________ AL051996 40.1731 -68.9178 HU 70 961 1 11 50
1996233N12340 1996 70 NA NA EDOUARD 1996-09-02 12:00:00 TS 40.5000 -68.3000 70 962 hurdat_atl main 194 193 O_____________ hurdat_atl AL051996 40.5000 -68.3000 HU 70 962 1 11 51
1996233N12340 1996 70 NA NA EDOUARD 1996-09-02 15:00:00 TS 40.9001 -67.7553 main 203 203 P_____________ AL051996 40.9001 -67.7553 HU 67 967 1 11 43
1996233N12340 1996 70 NA NA EDOUARD 1996-09-02 18:00:00 TS 41.3000 -67.3000 65 972 hurdat_atl main 228 226 O_____________ hurdat_atl AL051996 41.3000 -67.3000 HU 65 972 1 10 34
1996233N12340 1996 70 NA NA EDOUARD 1996-09-02 21:00:00 TS 41.6944 -67.0342 main 226 189 P_____________ AL051996 41.6944 -67.0342 HU 62 975 0 8 28
1996233N12340 1996 70 NA NA EDOUARD 1996-09-03 00:00:00 TS 42.0000 -66.8000 60 978 hurdat_atl main 189 168 O_____________ hurdat_atl AL051996 42.0000 -66.8000 TS 60 978 0 6 46
1996233N12340 1996 70 NA NA EDOUARD 1996-09-03 03:00:00 TS 42.1299 -66.4367 main 165 146 P_____________ AL051996 42.1299 -66.4367 TS 57 981 0 6 71
1996233N12340 1996 70 NA NA EDOUARD 1996-09-03 06:00:00 ET 42.2000 -66.0000 55 985 hurdat_atl main 146 133 O_____________ hurdat_atl AL051996 42.2000 -66.0000 EX 55 985 -4 7 71
1996233N12340 1996 70 NA NA EDOUARD 1996-09-03 09:00:00 ET 42.3486 -65.5897 main 133 111 P_____________ AL051996 42.3486 -65.5897 EX 52 988 -4 8 68
1996233N12340 1996 70 NA NA EDOUARD 1996-09-03 12:00:00 ET 42.5000 -65.0000 50 992 hurdat_atl main 113 113 O_____________ hurdat_atl AL051996 42.5000 -65.0000 EX 50 992 -4 11 77
1996233N12340 1996 70 NA NA EDOUARD 1996-09-03 15:00:00 ET 42.5829 -64.1625 main 133 133 P_____________ AL051996 42.5829 -64.1625 EX 50 993 -4 15 82
1996233N12340 1996 70 NA NA EDOUARD 1996-09-03 18:00:00 ET 42.7000 -63.0000 50 995 hurdat_atl main 189 189 O_____________ hurdat_atl AL051996 42.7000 -63.0000 EX 50 995 -4 20 79
1996233N12340 1996 70 NA NA EDOUARD 1996-09-03 21:00:00 ET 42.9611 -61.4263 main 218 218 P_____________ AL051996 42.9611 -61.4263 EX 50 996 -4 24 78
1996233N12340 1996 70 NA NA EDOUARD 1996-09-04 00:00:00 ET 43.2000 -59.8000 50 997 hurdat_atl main 245 245 O_____________ hurdat_atl AL051996 43.2000 -59.8000 EX 50 997 -4 21 81
1996233N12340 1996 70 NA NA EDOUARD 1996-09-04 03:00:00 ET 43.2771 -58.5577 main 289 289 P_____________ AL051996 43.2771 -58.5577 EX 50 995 -4 17 87
1996233N12340 1996 70 NA NA EDOUARD 1996-09-04 06:00:00 ET 43.3000 -57.5000 50 994 hurdat_atl main 343 343 O_____________ hurdat_atl AL051996 43.3000 -57.5000 EX 50 994 -4 15 87
1996233N12340 1996 70 NA NA EDOUARD 1996-09-04 09:00:00 ET 43.3485 -56.4773 main 393 377 P_____________ AL051996 43.3485 -56.4773 EX 50 994 -4 15 86
1996233N12340 1996 70 NA NA EDOUARD 1996-09-04 12:00:00 ET 43.4000 -55.5000 50 994 hurdat_atl main 378 353 O_____________ hurdat_atl AL051996 43.4000 -55.5000 EX 50 994 -4 14 86
1996233N12340 1996 70 NA NA EDOUARD 1996-09-04 15:00:00 ET 43.4566 -54.5002 main 351 344 P_____________ AL051996 43.4566 -54.5002 EX 50 994 -4 15 86
1996233N12340 1996 70 NA NA EDOUARD 1996-09-04 18:00:00 ET 43.5000 -53.5000 50 995 hurdat_atl main 344 344 O_____________ hurdat_atl AL051996 43.5000 -53.5000 EX 50 995 -4 15 88
1996233N12340 1996 70 NA NA EDOUARD 1996-09-04 21:00:00 ET 43.5075 -52.4622 main 348 348 P_____________ AL051996 43.5075 -52.4622 EX 50 995 -4 14 90
1996233N12340 1996 70 NA NA EDOUARD 1996-09-05 00:00:00 ET 43.5000 -51.5000 50 995 hurdat_atl main 369 369 O_____________ hurdat_atl AL051996 43.5000 -51.5000 EX 50 995 -4 13 90
1996233N12340 1996 70 NA NA EDOUARD 1996-09-05 03:00:00 ET 43.4987 -50.7125 main 396 396 P_____________ AL051996 43.4987 -50.7125 EX 47 994 -4 11 90
1996233N12340 1996 70 NA NA EDOUARD 1996-09-05 06:00:00 ET 43.5000 -50.0000 45 994 hurdat_atl main 425 425 O_____________ hurdat_atl AL051996 43.5000 -50.0000 EX 45 994 -4 11 91
1996233N12340 1996 70 NA NA EDOUARD 1996-09-05 09:00:00 ET 43.4852 -49.2121 main 465 465 P_____________ AL051996 43.4852 -49.2121 EX 45 994 -4 11 90
1996233N12340 1996 70 NA NA EDOUARD 1996-09-05 12:00:00 ET 43.5000 -48.5000 45 994 hurdat_atl main 503 503 O_____________ hurdat_atl AL051996 43.5000 -48.5000 EX 45 994 -4 9 87
1996233N12340 1996 70 NA NA EDOUARD 1996-09-05 15:00:00 ET 43.5387 -47.9985 main 532 531 P_____________ AL051996 43.5387 -47.9985 EX 45 994 -4 7 75
1996233N12340 1996 70 NA NA EDOUARD 1996-09-05 18:00:00 ET 43.7000 -47.5000 45 995 hurdat_atl main 549 548 O_____________ hurdat_atl AL051996 43.7000 -47.5000 EX 45 995 -4 10 61
1996233N12340 1996 70 NA NA EDOUARD 1996-09-05 21:00:00 ET 44.0019 -46.8226 main 573 573 P_____________ AL051996 44.0019 -46.8226 EX 42 995 -4 13 53
1996233N12340 1996 70 NA NA EDOUARD 1996-09-06 00:00:00 ET 44.5000 -46.0000 40 995 hurdat_atl main 598 598 O_____________ hurdat_atl AL051996 44.5000 -46.0000 EX 40 995 -4 18 49
1996233N12340 1996 70 NA NA EDOUARD 1996-09-06 03:00:00 ET 45.1617 -44.9653 main 634 634 P_____________ AL051996 45.1617 -44.9653 EX 40 994 -4 21 43
1996233N12340 1996 70 NA NA EDOUARD 1996-09-06 06:00:00 ET 46.0000 -44.0000 40 994 hurdat_atl main 672 672 O_____________ hurdat_atl AL051996 46.0000 -44.0000 EX 40 994 -4 21 30
1996233N12340 1996 70 NA NA EDOUARD 1996-09-06 09:00:00 ET 46.9597 -43.4914 main 685 685 P_____________ AL051996 46.9597 -43.4914 EX 40 993 -4 21 19
1996233N12340 1996 70 NA NA EDOUARD 1996-09-06 12:00:00 ET 48.0000 -43.0000 40 992 hurdat_atl main 716 716 O_____________ hurdat_atl AL051996 48.0000 -43.0000 EX 40 992 -4 22 24
1996233N12340 1996 70 NA NA EDOUARD 1996-09-06 15:00:00 ET 49.0164 -42.1386 main 789 789 P_____________ AL051996 49.0164 -42.1386 EX 40 991 -4 24 33
1996233N12340 1996 70 NA NA EDOUARD 1996-09-06 18:00:00 ET 50.0000 -41.0000 40 990 hurdat_atl main 880 O_____________ hurdat_atl AL051996 50.0000 -41.0000 EX 40 990 -4 25 37

About IBTrACS Database

This database is a web-friendly format of International Best Track Archive for Climate Stewardship (IBTrACS), a global best track data archive curated by NOAA dating back to 1842.

Updated: 2021-12-03